Clarendon, Arkansas
Current Conditions -  °F | °C
As of 8:55 AM on Sunday 21 Dec 2014 (Local Time) from KSGT Reporting Station
Clear Clear  
Wind Chill: 34°   Ceiling: Unl
Heat Index: 39°   Visibility: NA
Dew Point: 34°   Wind: 7mph
Humidity: 81%   Direction: 70°ENE
Pressure: 30.21"   Gusts: NA
Location:  34.69°N, 91.31°W
Report Text: KSGT 211455Z 07006KT CLR 04/01 A3021 RMK AO1 52003
Loading
Personal Weather Stations






























Interactive Weather Map New forecast layout! Learn more

10-Day Weather Forecast

Advertisements
Track Severe Weather on mobile